Time,TemperatureF,DewpointF,PressureIn,WindDirection,WindDirectionDegrees,WindSpeedMPH,WindSpeedGustMPH,Humidity,HourlyPrecipIn,Conditions,Clouds,dailyrainin,SoftwareType,DateUTC
2013-04-30 00:01:00,50.0,22.0,-100.00,WSW,240,23.0,37.0,34,0.00,,,-99.99,,2013-04-30 06:01:00,
2013-04-30 00:11:00,50.0,23.0,-100.00,WSW,240,21.0,30.0,34,0.00,,,-99.99,,2013-04-30 06:11:00,
2013-04-30 00:21:00,50.0,22.0,-100.00,WSW,240,23.0,30.0,33,0.00,,,-99.99,,2013-04-30 06:21:00,
2013-04-30 00:31:00,50.0,23.0,-100.00,WSW,241,22.0,35.0,34,0.00,,,-99.99,,2013-04-30 06:31:00,
2013-04-30 00:41:00,50.0,23.0,-100.00,WSW,247,22.0,32.0,34,0.00,,,-99.99,,2013-04-30 06:41:00,
2013-04-30 00:52:00,49.0,23.0,-100.00,WSW,248,19.0,30.0,36,0.00,,,-99.99,,2013-04-30 06:52:00,
2013-04-30 01:01:00,49.0,23.0,-100.00,WSW,244,19.0,26.0,36,0.00,,,-99.99,,2013-04-30 07:01:00,
2013-04-30 01:11:00,49.0,23.0,-100.00,WSW,244,20.0,26.0,36,0.00,,,-99.99,,2013-04-30 07:11:00,
2013-04-30 01:21:00,49.0,24.0,-100.00,WSW,247,21.0,27.0,37,0.00,,,-99.99,,2013-04-30 07:21:00,
2013-04-30 01:31:00,48.0,24.0,-100.00,WSW,251,19.0,24.0,38,0.00,,,-99.99,,2013-04-30 07:31:00,
2013-04-30 01:41:00,48.0,25.0,-100.00,WSW,251,17.0,22.0,40,0.00,,,-99.99,,2013-04-30 07:41:00,
2013-04-30 01:52:00,48.0,24.0,-100.00,WSW,251,17.0,24.0,39,0.00,,,-99.99,,2013-04-30 07:52:00,
2013-04-30 02:02:00,48.0,25.0,-100.00,West,261,21.0,31.0,40,0.00,,,-99.99,,2013-04-30 08:02:00,
2013-04-30 02:11:00,48.0,26.0,-100.00,West,261,22.0,31.0,42,0.00,,,-99.99,,2013-04-30 08:11:00,
2013-04-30 02:21:00,47.0,27.0,-100.00,West,260,31.0,43.0,45,0.00,,,-99.99,,2013-04-30 08:21:00,
2013-04-30 02:32:00,47.0,28.0,-100.00,West,261,37.0,51.0,48,0.00,,,-99.99,,2013-04-30 08:32:00,
2013-04-30 02:52:00,45.0,30.0,-100.00,WSW,257,32.0,46.0,56,0.00,,,-99.99,,2013-04-30 08:52:00,
2013-04-30 03:01:00,44.0,30.0,-100.00,WSW,256,34.0,44.0,57,0.00,,,-99.99,,2013-04-30 09:01:00,
2013-04-30 03:11:00,44.0,31.0,-100.00,WSW,257,34.0,44.0,60,0.00,,,-99.99,,2013-04-30 09:11:00,
2013-04-30 03:22:00,42.0,31.0,-100.00,West,260,32.0,40.0,65,0.00,,,-99.99,,2013-04-30 09:22:00,
2013-04-30 03:33:00,42.0,32.0,-100.00,WSW,258,29.0,39.0,66,0.00,,,-99.99,,2013-04-30 09:33:00,
2013-04-30 03:43:00,42.0,32.0,-100.00,WSW,254,30.0,41.0,69,0.00,,,-99.99,,2013-04-30 09:43:00,
2013-04-30 03:52:00,41.0,33.0,-100.00,WSW,248,26.0,38.0,74,0.00,,,-99.99,,2013-04-30 09:52:00,
2013-04-30 04:03:00,41.0,33.0,-100.00,WSW,248,22.0,31.0,72,0.00,,,-99.99,,2013-04-30 10:03:00,
2013-04-30 04:11:00,41.0,33.0,-100.00,WSW,248,23.0,32.0,71,0.00,,,-99.99,,2013-04-30 10:11:00,
2013-04-30 04:22:00,41.0,32.0,-100.00,WSW,241,24.0,34.0,70,0.00,,,-99.99,,2013-04-30 10:22:00,
2013-04-30 04:32:00,41.0,32.0,-100.00,WSW,251,17.0,26.0,70,0.00,,,-99.99,,2013-04-30 10:32:00,
2013-04-30 04:41:00,41.0,32.0,-100.00,WSW,251,17.0,24.0,69,0.00,,,-99.99,,2013-04-30 10:41:00,
2013-04-30 04:52:00,40.0,32.0,-100.00,West,275,9.0,12.0,72,0.00,,,-99.99,,2013-04-30 10:52:00,
2013-04-30 05:02:00,40.0,32.0,-100.00,WNW,282,6.0,11.0,73,0.00,,,-99.99,,2013-04-30 11:02:00,
2013-04-30 05:11:00,40.0,31.0,-100.00,West,278,6.0,9.0,72,0.00,,,-99.99,,2013-04-30 11:11:00,
2013-04-30 05:21:00,41.0,30.0,-100.00,WNW,284,12.0,19.0,65,0.00,,,-99.99,,2013-04-30 11:21:00,
2013-04-30 05:31:00,41.0,28.0,-100.00,WNW,289,16.0,21.0,60,0.00,,,-99.99,,2013-04-30 11:31:00,
2013-04-30 05:51:00,40.0,29.0,-100.00,West,281,11.0,16.0,65,0.00,,,-99.99,,2013-04-30 11:51:00,
2013-04-30 06:01:00,40.0,30.0,-100.00,WSW,240,6.0,11.0,67,0.00,,,-99.99,,2013-04-30 12:01:00,
2013-04-30 06:11:00,40.0,30.0,-100.00,WSW,247,5.0,9.0,66,0.00,,,-99.99,,2013-04-30 12:11:00,
2013-04-30 06:21:00,41.0,31.0,-100.00,WSW,254,9.0,14.0,66,0.00,,,-99.99,,2013-04-30 12:21:00,
2013-04-30 06:31:00,41.0,31.0,-100.00,WSW,258,6.0,9.0,67,0.00,,,-99.99,,2013-04-30 12:31:00,
2013-04-30 06:41:00,41.0,31.0,-100.00,WSW,256,7.0,9.0,68,0.00,,,-99.99,,2013-04-30 12:41:00,
2013-04-30 06:51:00,41.0,30.0,-100.00,West,261,5.0,7.0,67,0.00,,,-99.99,,2013-04-30 12:51:00,
2013-04-30 07:01:00,41.0,30.0,-100.00,WSW,257,5.0,7.0,65,0.00,,,-99.99,,2013-04-30 13:01:00,
2013-04-30 07:11:00,41.0,29.0,-100.00,SW,232,5.0,11.0,61,0.00,,,-99.99,,2013-04-30 13:11:00,
2013-04-30 07:21:00,41.0,28.0,-100.00,SW,223,9.0,13.0,61,0.00,,,-99.99,,2013-04-30 13:21:00,
2013-04-30 07:31:00,41.0,29.0,-100.00,SW,222,7.0,12.0,62,0.00,,,-99.99,,2013-04-30 13:31:00,
2013-04-30 07:41:00,41.0,29.0,-100.00,SW,226,7.0,11.0,61,0.00,,,-99.99,,2013-04-30 13:41:00,
2013-04-30 07:51:00,41.0,28.0,-100.00,WSW,237,16.0,24.0,60,0.00,,,-99.99,,2013-04-30 13:51:00,
2013-04-30 08:02:00,40.0,29.0,-100.00,SW,236,14.0,22.0,63,0.00,,,-99.99,,2013-04-30 14:02:00,
2013-04-30 08:11:00,40.0,29.0,-100.00,SW,233,14.0,23.0,64,0.00,,,-99.99,,2013-04-30 14:11:00,
2013-04-30 08:21:00,39.0,30.0,-100.00,SW,223,16.0,23.0,70,0.00,,,-99.99,,2013-04-30 14:21:00,
2013-04-30 08:31:00,39.0,31.0,-100.00,SW,226,13.0,18.0,71,0.01,,,-99.99,,2013-04-30 14:31:00,
2013-04-30 08:41:00,39.0,31.0,-100.00,SW,224,13.0,17.0,71,0.01,,,-99.99,,2013-04-30 14:41:00,
2013-04-30 08:52:00,39.0,31.0,-100.00,SW,215,16.0,22.0,71,0.01,,,-99.99,,2013-04-30 14:52:00,
2013-04-30 09:01:00,39.0,30.0,-100.00,SW,215,21.0,27.0,69,0.00,,,-99.99,,2013-04-30 15:01:00,
2013-04-30 09:11:00,38.0,32.0,-100.00,SW,215,21.0,27.0,77,0.01,,,-99.99,,2013-04-30 15:11:00,
2013-04-30 09:21:00,38.0,32.0,-100.00,SSW,212,18.0,24.0,81,0.01,,,-99.99,,2013-04-30 15:21:00,
2013-04-30 09:32:00,38.0,32.0,-100.00,SSW,206,17.0,22.0,80,0.00,,,-99.99,,2013-04-30 15:32:00,
2013-04-30 09:42:00,38.0,33.0,-100.00,SSW,205,17.0,22.0,81,0.00,,,-99.99,,2013-04-30 15:42:00,
2013-04-30 09:52:00,37.0,33.0,-100.00,SSW,213,16.0,21.0,86,0.01,,,-99.99,,2013-04-30 15:52:00,
2013-04-30 10:02:00,38.0,32.0,-100.00,SW,227,16.0,27.0,81,0.04,,,-99.99,,2013-04-30 16:02:00,
2013-04-30 10:12:00,37.0,32.0,-100.00,WSW,251,19.0,26.0,83,0.01,,,-99.99,,2013-04-30 16:12:00,
2013-04-30 10:22:00,36.0,33.0,-100.00,WSW,256,21.0,27.0,87,0.03,,,-99.99,,2013-04-30 16:22:00,
2013-04-30 10:33:00,36.0,33.0,-100.00,West,260,22.0,28.0,91,0.00,,,-99.99,,2013-04-30 16:33:00,
2013-04-30 10:42:00,35.0,34.0,-100.00,West,261,22.0,27.0,94,0.06,,,-99.99,,2013-04-30 16:42:00,
2013-04-30 10:52:00,35.0,34.0,-100.00,West,260,21.0,26.0,96,0.00,,,-99.99,,2013-04-30 16:52:00,
2013-04-30 11:02:00,36.0,35.0,-100.00,WSW,254,18.0,24.0,96,0.00,,,-99.99,,2013-04-30 17:02:00,
2013-04-30 11:12:00,36.0,33.0,-100.00,WSW,246,18.0,26.0,89,0.00,,,-99.99,,2013-04-30 17:12:00,
2013-04-30 11:22:00,37.0,33.0,-100.00,WSW,247,19.0,25.0,85,0.00,,,-99.99,,2013-04-30 17:22:00,
2013-04-30 11:32:00,38.0,33.0,-100.00,WSW,246,19.0,26.0,81,0.00,,,-99.99,,2013-04-30 17:32:00,
2013-04-30 11:42:00,38.0,32.0,-100.00,WSW,240,18.0,24.0,79,0.00,,,-99.99,,2013-04-30 17:42:00,
2013-04-30 11:52:00,36.0,33.0,-100.00,West,263,14.0,20.0,89,0.00,,,-99.99,,2013-04-30 17:52:00,
2013-04-30 12:01:00,36.0,33.0,-100.00,WNW,284,15.0,20.0,89,0.00,,,-99.99,,2013-04-30 18:01:00,
2013-04-30 12:11:00,36.0,32.0,-100.00,WNW,282,16.0,20.0,87,0.00,,,-99.99,,2013-04-30 18:11:00,
2013-04-30 12:22:00,36.0,33.0,-100.00,WNW,287,13.0,18.0,86,0.00,,,-99.99,,2013-04-30 18:22:00,
2013-04-30 12:32:00,38.0,31.0,-100.00,West,268,12.0,21.0,76,0.00,,,-99.99,,2013-04-30 18:32:00,
2013-04-30 12:41:00,39.0,30.0,-100.00,SW,227,16.0,24.0,70,0.00,,,-99.99,,2013-04-30 18:41:00,
2013-04-30 12:51:00,40.0,29.0,-100.00,SW,226,19.0,26.0,66,0.00,,,-99.99,,2013-04-30 18:51:00,
2013-04-30 13:01:00,40.0,30.0,-100.00,SW,229,19.0,28.0,66,0.00,,,-99.99,,2013-04-30 19:01:00,
2013-04-30 13:11:00,40.0,30.0,-100.00,SW,226,21.0,28.0,68,0.00,,,-99.99,,2013-04-30 19:11:00,
2013-04-30 13:21:00,40.0,31.0,-100.00,SW,230,21.0,27.0,69,0.00,,,-99.99,,2013-04-30 19:21:00,
2013-04-30 13:32:00,37.0,33.0,-100.00,West,277,20.0,29.0,87,0.00,,,-99.99,,2013-04-30 19:32:00,
2013-04-30 13:42:00,39.0,31.0,-100.00,WSW,247,19.0,28.0,75,0.00,,,-99.99,,2013-04-30 19:42:00,
2013-04-30 13:52:00,38.0,31.0,-100.00,SW,226,22.0,29.0,75,0.00,,,-99.99,,2013-04-30 19:52:00,
2013-04-30 14:02:00,38.0,31.0,-100.00,SW,229,22.0,29.0,75,0.00,,,-99.99,,2013-04-30 20:02:00,
2013-04-30 14:11:00,38.0,31.0,-100.00,WSW,237,19.0,26.0,75,0.00,,,-99.99,,2013-04-30 20:11:00,
2013-04-30 14:21:00,37.0,31.0,-100.00,SW,232,21.0,29.0,79,0.00,,,-99.99,,2013-04-30 20:21:00,
2013-04-30 14:32:00,36.0,31.0,-100.00,SW,232,19.0,25.0,82,0.00,,,-99.99,,2013-04-30 20:32:00,
2013-04-30 14:42:00,36.0,31.0,-100.00,SW,234,19.0,27.0,79,0.00,,,-99.99,,2013-04-30 20:42:00,
2013-04-30 14:52:00,37.0,31.0,-100.00,SW,232,20.0,26.0,79,0.00,,,-99.99,,2013-04-30 20:52:00,
2013-04-30 15:01:00,36.0,31.0,-100.00,WSW,239,21.0,27.0,84,0.00,,,-99.99,,2013-04-30 21:01:00,
2013-04-30 15:11:00,35.0,32.0,-100.00,SW,226,21.0,26.0,90,0.01,,,-99.99,,2013-04-30 21:11:00,
2013-04-30 15:22:00,35.0,32.0,-100.00,SW,223,18.0,24.0,90,0.01,,,-99.99,,2013-04-30 21:22:00,
2013-04-30 15:32:00,35.0,31.0,-100.00,SW,227,17.0,23.0,88,0.00,,,-99.99,,2013-04-30 21:32:00,
2013-04-30 15:42:00,35.0,31.0,-100.00,SW,227,17.0,23.0,86,0.00,,,-99.99,,2013-04-30 21:42:00,
2013-04-30 15:52:00,35.0,31.0,-100.00,WSW,239,15.0,20.0,88,0.01,,,-99.99,,2013-04-30 21:52:00,
2013-04-30 16:02:00,34.0,33.0,-100.00,WSW,237,14.0,19.0,95,0.03,,,-99.99,,2013-04-30 22:02:00,
2013-04-30 16:12:00,32.0,32.0,-100.00,West,265,13.0,18.0,99,0.01,,,-99.99,,2013-04-30 22:12:00,
2013-04-30 16:22:00,32.0,32.0,-100.00,WSW,258,12.0,18.0,100,0.01,,,-99.99,,2013-04-30 22:22:00,
2013-04-30 16:32:00,32.0,32.0,-100.00,West,274,9.0,13.0,100,0.01,,,-99.99,,2013-04-30 22:32:00,
2013-04-30 16:41:00,32.0,32.0,-100.00,WSW,257,9.0,13.0,100,0.08,,,-99.99,,2013-04-30 22:41:00,
2013-04-30 16:52:00,32.0,32.0,-100.00,SW,227,14.0,19.0,100,0.10,,,-99.99,,2013-04-30 22:52:00,
2013-04-30 17:02:00,32.0,32.0,-100.00,SW,230,15.0,20.0,100,0.04,,,-99.99,,2013-04-30 23:02:00,
2013-04-30 17:12:00,32.0,32.0,-100.00,SW,223,10.0,14.0,100,0.07,,,-99.99,,2013-04-30 23:12:00,
2013-04-30 17:21:00,32.0,32.0,-100.00,SSW,209,9.0,16.0,100,0.07,,,-99.99,,2013-04-30 23:21:00,
2013-04-30 17:32:00,32.0,32.0,-100.00,SSW,205,11.0,18.0,100,0.10,,,-99.99,,2013-04-30 23:32:00,
2013-04-30 17:42:00,32.0,32.0,-100.00,SW,215,9.0,17.0,100,0.17,,,-99.99,,2013-04-30 23:42:00,
2013-04-30 17:52:00,32.0,32.0,-100.00,SW,219,12.0,16.0,100,0.24,,,-99.99,,2013-04-30 23:52:00,
2013-04-30 18:02:00,32.0,32.0,-100.00,SW,219,11.0,14.0,100,0.24,,,-99.99,,2013-05-01 00:02:00,
2013-04-30 18:11:00,32.0,32.0,-100.00,SW,219,12.0,17.0,100,0.18,,,-99.99,,2013-05-01 00:11:00,
2013-04-30 18:21:00,32.0,32.0,-100.00,SSW,210,13.0,18.0,100,0.06,,,-99.99,,2013-05-01 00:21:00,
2013-04-30 18:32:00,32.0,32.0,-100.00,SSW,208,18.0,24.0,100,0.04,,,-99.99,,2013-05-01 00:32:00,
2013-04-30 18:42:00,32.0,32.0,-100.00,SSW,208,18.0,24.0,100,0.11,,,-99.99,,2013-05-01 00:42:00,
2013-04-30 18:51:00,32.0,32.0,-100.00,SSW,202,17.0,22.0,100,0.01,,,-99.99,,2013-05-01 00:51:00,
2013-04-30 19:01:00,32.0,32.0,-100.00,SSW,198,19.0,24.0,100,0.00,,,-99.99,,2013-05-01 01:01:00,
2013-04-30 19:11:00,32.0,32.0,-100.00,SSW,193,17.0,23.0,100,0.00,,,-99.99,,2013-05-01 01:11:00,
2013-04-30 19:21:00,33.0,33.0,-100.00,SSW,195,17.0,25.0,100,0.00,,,-99.99,,2013-05-01 01:21:00,
2013-04-30 19:31:00,33.0,33.0,-100.00,SSW,195,20.0,26.0,99,0.00,,,-99.99,,2013-05-01 01:31:00,
2013-04-30 19:41:00,34.0,32.0,-100.00,SSW,195,19.0,23.0,95,0.00,,,-99.99,,2013-05-01 01:41:00,
2013-04-30 19:52:00,35.0,31.0,-100.00,SSW,208,21.0,30.0,86,0.00,,,-99.99,,2013-05-01 01:52:00,
2013-04-30 20:02:00,36.0,29.0,-100.00,SW,215,21.0,35.0,77,0.00,,,-99.99,,2013-05-01 02:02:00,
2013-04-30 20:11:00,36.0,27.0,-100.00,SW,220,19.0,26.0,69,0.00,,,-99.99,,2013-05-01 02:11:00,
2013-04-30 20:21:00,36.0,23.0,-100.00,SW,217,19.0,29.0,58,0.00,,,-99.99,,2013-05-01 02:21:00,
2013-04-30 20:32:00,36.0,26.0,-100.00,SW,217,17.0,28.0,68,0.00,,,-99.99,,2013-05-01 02:32:00,
2013-04-30 20:42:00,36.0,26.0,-100.00,SW,217,16.0,21.0,65,0.00,,,-99.99,,2013-05-01 02:42:00,
2013-04-30 20:51:00,35.0,24.0,-100.00,SW,216,14.0,17.0,65,0.00,,,-99.99,,2013-05-01 02:51:00,
2013-04-30 21:01:00,35.0,24.0,-100.00,SSW,212,15.0,18.0,64,0.00,,,-99.99,,2013-05-01 03:01:00,
2013-04-30 21:11:00,35.0,24.0,-100.00,SSW,213,16.0,19.0,65,0.00,,,-99.99,,2013-05-01 03:11:00,
2013-04-30 21:21:00,34.0,23.0,-100.00,SW,215,13.0,17.0,64,0.00,,,-99.99,,2013-05-01 03:21:00,
2013-04-30 21:33:00,32.0,27.0,-100.00,WNW,295,6.0,15.0,83,0.00,,,-99.99,,2013-05-01 03:33:00,
2013-04-30 21:43:00,33.0,25.0,-100.00,West,281,6.0,9.0,73,0.00,,,-99.99,,2013-05-01 03:43:00,
2013-04-30 21:52:00,31.0,26.0,-100.00,WNW,285,4.0,9.0,82,0.00,,,-99.99,,2013-05-01 03:52:00,
2013-04-30 22:03:00,31.0,26.0,-100.00,SW,217,1.0,2.0,82,0.00,,,-99.99,,2013-05-01 04:03:00,
2013-04-30 22:12:00,29.0,28.0,-100.00,ESE,116,6.0,9.0,98,0.00,,,-99.99,,2013-05-01 04:12:00,
2013-04-30 22:22:00,29.0,29.0,-100.00,ESE,114,7.0,11.0,100,0.00,,,-99.99,,2013-05-01 04:22:00,
2013-04-30 22:32:00,30.0,30.0,-100.00,SE,124,7.0,9.0,100,0.00,,,-99.99,,2013-05-01 04:32:00,
2013-04-30 22:42:00,30.0,30.0,-100.00,ESE,123,6.0,9.0,100,0.00,,,-99.99,,2013-05-01 04:42:00,
2013-04-30 22:52:00,30.0,30.0,-100.00,East,100,7.0,14.0,100,0.00,,,-99.99,,2013-05-01 04:52:00,
2013-04-30 23:02:00,29.0,29.0,-100.00,East,89,9.0,16.0,100,0.00,,,-99.99,,2013-05-01 05:02:00,
2013-04-30 23:11:00,29.0,29.0,-100.00,ENE,78,11.0,15.0,100,0.00,,,-99.99,,2013-05-01 05:11:00,
2013-04-30 23:21:00,28.0,28.0,-100.00,ENE,75,14.0,20.0,100,0.00,,,-99.99,,2013-05-01 05:21:00,
2013-04-30 23:32:00,27.0,27.0,-100.00,ENE,73,16.0,20.0,100,0.00,,,-99.99,,2013-05-01 05:32:00,
2013-04-30 23:41:00,26.0,26.0,-100.00,East,93,12.0,22.0,100,0.01,,,-99.99,,2013-05-01 05:41:00,
2013-04-30 23:52:00,26.0,26.0,-100.00,East,92,13.0,20.0,100,0.00,,,-99.99,,2013-05-01 05:52:00,